WXM80 ListenWXM80 Stop

You find our weather info also at:

UK Metoffice

WeatherCloud

Weather Underground

Northeastern Weather Network

AWEKAS

Citizen Weather Observer Program (CWOP)

HAMweather, WeatherForYou, PWS Weather


Weather Underground History page Text

Daily Summary for August 20, 2017 Units:  English    Metric   Both
« Previous Day
Next Day »
Daily Weekly Monthly Yearly Custom
  High: Low: Average:
Temperature: 86.8 °F 69.4 °F 76.9 °F
Dew Point: 70.0 °F 62.9 °F 65.9 °F
Humidity: 85 % 49 % 70 %
Wind Speed: 7.7 mph 0.0 mph 1.8 mph
Wind Gust: 12.7 mph - -
Wind:- - West
Pressure: 30.10 in 29.82 in -
Precipitation: 0.00 in    
Historical Graphs
 
 
Tabular Data for August 20, 2017
Time Temperature Dew Point Pressure Wind Wind Speed Wind Gust Humidity Rainfall Rate (Hourly)
00:00 73.9 °F 68.1 °F 29.82 in Calm     82 % 0.00 in
00:05 73.9 °F 68.1 °F 29.82 in Calm     82 % 0.00 in
00:10 73.8 °F 68.3 °F 29.82 in Calm     83 % 0.00 in
00:15 73.7 °F 68.2 °F 29.82 in Calm     83 % 0.00 in
00:20 73.5 °F 67.7 °F 29.82 in Calm     82 % 0.00 in
00:25 73.5 °F 68.0 °F 29.82 in Calm     83 % 0.00 in
00:30 73.4 °F 67.9 °F 29.82 in WSW 0.7 mph 2.3 mph 83 % 0.00 in
00:35 73.3 °F 67.8 °F 29.82 in Calm   1.2 mph 83 % 0.00 in
00:40 73.2 °F 67.7 °F 29.82 in Calm     83 % 0.00 in
00:45 73.1 °F 67.6 °F 29.82 in SW 0.1 mph 1.2 mph 83 % 0.00 in
00:50 73.0 °F 67.5 °F 29.83 in Calm   1.2 mph 83 % 0.00 in
00:55 73.0 °F 67.5 °F 29.82 in Calm     83 % 0.00 in
01:00 73.0 °F 67.5 °F 29.82 in Calm     83 % 0.00 in
01:05 73.0 °F 67.5 °F 29.82 in SW 0.1 mph 1.2 mph 83 % 0.00 in
01:07 73.0 °F 67.5 °F 29.82 in SW 0.2 mph 1.2 mph 83 % 0.00 in
01:12 73.0 °F 67.5 °F 29.83 in West 1.2 mph 4.0 mph 83 % 0.00 in
01:17 73.1 °F 67.6 °F 29.83 in WSW 2.1 mph 3.5 mph 83 % 0.00 in
01:22 73.2 °F 67.7 °F 29.83 in WSW 1.5 mph 3.5 mph 83 % 0.00 in
01:27 73.3 °F 67.8 °F 29.83 in WSW 1.4 mph 3.5 mph 83 % 0.00 in
01:32 73.5 °F 67.7 °F 29.83 in Calm   1.2 mph 82 % 0.00 in
01:36 73.5 °F 67.7 °F 29.83 in Calm     82 % 0.00 in
01:41 73.7 °F 67.9 °F 29.83 in SSW 0.5 mph 1.2 mph 82 % 0.00 in
01:46 73.7 °F 67.9 °F 29.84 in Calm     82 % 0.00 in
01:51 73.8 °F 68.0 °F 29.83 in Calm     82 % 0.00 in
01:56 73.8 °F 68.0 °F 29.83 in SSW 0.1 mph 1.2 mph 82 % 0.00 in
02:01 73.8 °F 68.0 °F 29.84 in Calm   1.2 mph 82 % 0.00 in
02:06 73.8 °F 68.3 °F 29.84 in Calm   1.2 mph 83 % 0.00 in
02:11 73.7 °F 68.2 °F 29.84 in Calm   1.2 mph 83 % 0.00 in
02:16 73.7 °F 68.2 °F 29.84 in West 2.9 mph 4.6 mph 83 % 0.00 in
02:21 73.6 °F 68.5 °F 29.84 in WSW 1.0 mph 3.5 mph 84 % 0.00 in
02:26 73.5 °F 68.4 °F 29.84 in WSW 1.5 mph 3.5 mph 84 % 0.00 in
02:31 73.5 °F 68.4 °F 29.84 in WSW 0.1 mph 1.2 mph 84 % 0.00 in
02:36 73.5 °F 68.4 °F 29.83 in Calm     84 % 0.00 in
02:41 73.4 °F 68.3 °F 29.84 in Calm     84 % 0.00 in
02:46 73.4 °F 68.3 °F 29.84 in Calm     84 % 0.00 in
02:51 73.4 °F 68.6 °F 29.84 in SW 0.8 mph 3.0 mph 85 % 0.00 in
02:56 73.3 °F 68.5 °F 29.84 in West 1.2 mph 2.3 mph 85 % 0.00 in
03:01 73.3 °F 68.5 °F 29.84 in NW 0.6 mph 2.0 mph 85 % 0.00 in
03:06 73.3 °F 68.5 °F 29.85 in West 4.5 mph 5.8 mph 85 % 0.00 in
03:11 73.2 °F 68.4 °F 29.84 in West 2.0 mph 4.0 mph 85 % 0.00 in
03:16 73.1 °F 67.6 °F 29.85 in West 3.3 mph 6.9 mph 83 % 0.00 in
03:21 73.0 °F 67.2 °F 29.85 in NW 2.5 mph 3.5 mph 82 % 0.00 in
03:26 73.0 °F 66.8 °F 29.85 in West 3.3 mph 5.8 mph 81 % 0.00 in
03:31 73.0 °F 66.8 °F 29.85 in SSW 1.6 mph 4.0 mph 81 % 0.00 in
03:36 72.9 °F 66.4 °F 29.85 in WNW 4.1 mph 5.8 mph 80 % 0.00 in
03:41 72.9 °F 66.0 °F 29.85 in West 3.0 mph 4.0 mph 79 % 0.00 in
03:46 72.8 °F 65.5 °F 29.85 in West 1.4 mph 3.5 mph 78 % 0.00 in
03:52 72.8 °F 65.5 °F 29.85 in West 1.4 mph 4.0 mph 78 % 0.00 in
03:57 72.7 °F 65.4 °F 29.86 in WNW 4.2 mph 6.9 mph 78 % 0.00 in
04:02 72.6 °F 65.0 °F 29.86 in West 0.3 mph 3.5 mph 77 % 0.00 in
04:07 72.6 °F 65.0 °F 29.86 in WNW 4.0 mph 5.8 mph 77 % 0.00 in
04:12 72.6 °F 65.0 °F 29.86 in West 3.1 mph 5.8 mph 77 % 0.00 in
04:17 72.5 °F 65.2 °F 29.86 in WNW 4.1 mph 8.1 mph 78 % 0.00 in
04:22 72.4 °F 64.8 °F 29.87 in WSW 5.1 mph 10.4 mph 77 % 0.00 in
04:27 72.3 °F 64.7 °F 29.87 in WSW 3.5 mph 6.9 mph 77 % 0.00 in
04:32 72.2 °F 64.6 °F 29.87 in SW 3.4 mph 6.9 mph 77 % 0.00 in
04:37 72.2 °F 65.0 °F 29.87 in SSW 5.9 mph 11.5 mph 78 % 0.00 in
04:42 72.1 °F 64.9 °F 29.88 in NW 4.1 mph 10.4 mph 78 % 0.00 in
04:47 72.0 °F 65.1 °F 29.88 in SSW 3.0 mph 6.9 mph 79 % 0.00 in
04:52 71.8 °F 64.6 °F 29.88 in West 4.9 mph 9.2 mph 78 % 0.00 in
04:57 71.6 °F 64.7 °F 29.88 in SW 3.9 mph 6.9 mph 79 % 0.00 in
05:02 71.5 °F 64.6 °F 29.88 in West 3.0 mph 5.8 mph 79 % 0.00 in
05:07 71.3 °F 64.8 °F 29.88 in WNW 1.8 mph 6.9 mph 80 % 0.00 in
05:12 71.2 °F 64.7 °F 29.89 in West 2.3 mph 4.0 mph 80 % 0.00 in
05:17 71.1 °F 64.6 °F 29.89 in West 2.4 mph 10.4 mph 80 % 0.00 in
05:22 70.9 °F 64.4 °F 29.89 in WSW 3.4 mph 9.2 mph 80 % 0.00 in
05:27 70.9 °F 64.8 °F 29.89 in WSW 1.6 mph 4.0 mph 81 % 0.00 in
05:32 70.8 °F 64.7 °F 29.89 in WNW 2.1 mph 5.8 mph 81 % 0.00 in
05:37 70.6 °F 64.5 °F 29.89 in West 3.2 mph 3.5 mph 81 % 0.00 in
05:42 70.6 °F 64.5 °F 29.90 in NW 1.5 mph 3.5 mph 81 % 0.00 in
05:47 70.5 °F 64.4 °F 29.90 in WSW 2.1 mph 4.6 mph 81 % 0.00 in
05:52 70.4 °F 64.3 °F 29.90 in West 2.5 mph 6.9 mph 81 % 0.00 in
05:57 70.4 °F 64.3 °F 29.90 in West 3.3 mph 6.9 mph 81 % 0.00 in
06:02 70.3 °F 64.2 °F 29.90 in Calm   1.2 mph 81 % 0.00 in
06:07 70.3 °F 64.5 °F 29.91 in West 0.7 mph 3.5 mph 82 % 0.00 in
06:13 70.2 °F 64.4 °F 29.91 in WSW 1.7 mph 3.5 mph 82 % 0.00 in
06:18 70.2 °F 64.4 °F 29.91 in WNW 3.1 mph 6.9 mph 82 % 0.00 in
06:23 70.1 °F 64.3 °F 29.92 in SW 4.5 mph 8.1 mph 82 % 0.00 in
06:28 70.0 °F 64.2 °F 29.92 in NW 2.1 mph 3.5 mph 82 % 0.00 in
06:33 70.0 °F 64.6 °F 29.92 in NW 2.2 mph 5.8 mph 83 % 0.00 in
06:38 69.9 °F 64.5 °F 29.92 in NW 1.6 mph 5.8 mph 83 % 0.00 in
06:43 69.9 °F 64.8 °F 29.92 in West 0.8 mph 4.0 mph 84 % 0.00 in
06:44 69.9 °F 64.8 °F 29.93 in West 0.7 mph 5.8 mph 84 % 0.00 in
06:49 69.9 °F 64.8 °F 29.93 in WNW 3.4 mph 8.1 mph 84 % 0.00 in
06:54 69.8 °F 64.7 °F 29.93 in WNW 2.7 mph 5.8 mph 84 % 0.00 in
06:59 69.8 °F 64.7 °F 29.93 in WNW 3.7 mph 8.1 mph 84 % 0.00 in
07:04 69.8 °F 64.7 °F 29.93 in West 5.0 mph 10.4 mph 84 % 0.00 in
07:09 69.9 °F 64.8 °F 29.93 in WNW 0.2 mph 3.5 mph 84 % 0.00 in
07:14 69.9 °F 64.8 °F 29.94 in East 1.6 mph 6.9 mph 84 % 0.00 in
07:19 69.9 °F 64.8 °F 29.94 in NW 2.6 mph 10.4 mph 84 % 0.00 in
07:24 69.9 °F 64.5 °F 29.94 in WNW 3.7 mph 8.1 mph 83 % 0.00 in
07:29 69.9 °F 64.8 °F 29.94 in West 0.5 mph 4.6 mph 84 % 0.00 in
07:34 69.9 °F 64.8 °F 29.95 in West 2.3 mph 5.8 mph 84 % 0.00 in
07:39 70.0 °F 64.9 °F 29.95 in WNW 1.5 mph 6.9 mph 84 % 0.00 in
07:44 70.0 °F 64.6 °F 29.95 in WNW 3.6 mph 5.8 mph 83 % 0.00 in
07:49 70.0 °F 64.6 °F 29.95 in WNW 3.3 mph 5.8 mph 83 % 0.00 in
07:54 70.1 °F 64.7 °F 29.96 in WNW 1.2 mph 6.9 mph 83 % 0.00 in
07:59 70.1 °F 64.7 °F 29.96 in West 2.0 mph 6.9 mph 83 % 0.00 in
08:04 70.1 °F 64.7 °F 29.96 in WNW 0.3 mph 8.1 mph 83 % 0.00 in
08:09 70.2 °F 64.4 °F 29.96 in WSW 4.1 mph 8.1 mph 82 % 0.00 in
08:15 70.2 °F 64.4 °F 29.96 in WSW 5.3 mph 7.0 mph 82 % 0.00 in
08:20 70.3 °F 64.5 °F 29.96 in WSW 2.4 mph 6.9 mph 82 % 0.00 in
08:25 70.4 °F 64.6 °F 29.96 in West 4.0 mph 9.0 mph 82 % 0.00 in
08:30 70.4 °F 64.6 °F 29.96 in NW 3.5 mph 9.2 mph 82 % 0.00 in
08:35 70.5 °F 64.4 °F 29.96 in West 7.7 mph 11.5 mph 81 % 0.00 in
08:40 70.6 °F 64.8 °F 29.96 in WNW 4.7 mph 4.7 mph 82 % 0.00 in
08:45 70.7 °F 64.9 °F 29.96 in WNW 0.7 mph 3.5 mph 82 % 0.00 in
08:50 70.8 °F 64.7 °F 29.96 in WNW 3.0 mph 8.1 mph 81 % 0.00 in
08:51 70.9 °F 64.8 °F 29.96 in WNW 2.7 mph 6.9 mph 81 % 0.00 in
08:56 71.1 °F 64.6 °F 29.96 in WSW 3.7 mph 5.8 mph 80 % 0.00 in
09:01 71.3 °F 64.8 °F 29.96 in West 3.4 mph 5.8 mph 80 % 0.00 in
09:06 71.4 °F 64.9 °F 29.97 in WNW 3.4 mph 6.9 mph 80 % 0.00 in
09:11 71.6 °F 64.7 °F 29.96 in NNW 4.7 mph 9.0 mph 79 % 0.00 in
09:16 71.8 °F 64.9 °F 29.97 in SSW 4.8 mph 8.1 mph 79 % 0.00 in
09:21 72.0 °F 65.1 °F 29.97 in WSW 1.5 mph 5.8 mph 79 % 0.00 in
09:26 72.1 °F 64.9 °F 29.96 in WNW 1.3 mph 3.5 mph 78 % 0.00 in
09:31 72.3 °F 65.4 °F 29.96 in WNW 1.4 mph 4.6 mph 79 % 0.00 in
09:37 72.5 °F 65.2 °F 29.96 in West 1.5 mph 5.0 mph 78 % 0.00 in
09:42 72.8 °F 65.5 °F 29.97 in WNW 2.9 mph 6.9 mph 78 % 0.00 in
09:47 73.2 °F 65.9 °F 29.97 in North 4.0 mph 4.0 mph 78 % 0.00 in
09:52 73.9 °F 67.0 °F 29.97 in WNW 1.2 mph 2.3 mph 79 % 0.00 in
09:57 74.7 °F 66.6 °F 29.97 in WNW 2.9 mph 8.1 mph 76 % 0.00 in
10:02 75.6 °F 67.5 °F 29.97 in WNW 3.7 mph 7.0 mph 76 % 0.00 in
10:07 76.2 °F 66.9 °F 29.98 in NNW 2.2 mph 3.5 mph 73 % 0.00 in
10:12 76.6 °F 66.9 °F 29.98 in WNW 2.2 mph 5.8 mph 72 % 0.00 in
10:17 76.8 °F 66.3 °F 29.98 in WNW 2.7 mph 5.8 mph 70 % 0.00 in
10:22 77.0 °F 66.9 °F 29.98 in West 0.7 mph 3.5 mph 71 % 0.00 in
10:27 77.3 °F 66.7 °F 29.97 in WNW 1.6 mph 3.5 mph 70 % 0.00 in
10:32 77.6 °F 67.0 °F 29.98 in WNW 3.2 mph 6.0 mph 70 % 0.00 in
10:37 78.1 °F 67.9 °F 29.98 in NW 3.1 mph 5.8 mph 71 % 0.00 in
10:42 78.6 °F 67.2 °F 29.98 in NNE 2.8 mph 4.6 mph 68 % 0.00 in
10:47 79.3 °F 68.2 °F 29.98 in WNW 2.0 mph 4.6 mph 69 % 0.00 in
10:52 79.9 °F 68.8 °F 29.98 in NNE 0.6 mph 1.2 mph 69 % 0.00 in
10:57 80.6 °F 68.6 °F 29.98 in WSW 0.9 mph 2.3 mph 67 % 0.00 in
11:02 81.2 °F 69.2 °F 29.99 in North 0.5 mph 4.6 mph 67 % 0.00 in
11:07 81.8 °F 68.0 °F 29.99 in WNW 2.1 mph 4.0 mph 63 % 0.00 in
11:12 82.3 °F 68.4 °F 29.99 in NE 2.2 mph 4.6 mph 63 % 0.00 in
11:17 82.9 °F 68.5 °F 29.99 in WNW 1.4 mph 3.5 mph 62 % 0.00 in
11:22 83.5 °F 69.1 °F 29.99 in West 0.1 mph 1.2 mph 62 % 0.00 in
11:27 83.9 °F 67.5 °F 29.99 in NW 2.6 mph 5.8 mph 58 % 0.00 in
11:32 84.3 °F 67.9 °F 29.99 in WNW 0.2 mph 3.5 mph 58 % 0.00 in
11:37 84.6 °F 69.2 °F 29.99 in North 0.9 mph 3.5 mph 60 % 0.00 in
11:38 84.6 °F 68.7 °F 29.99 in NW 1.4 mph 3.5 mph 59 % 0.00 in
11:43 84.9 °F 68.0 °F 29.99 in NNE 4.0 mph 5.8 mph 57 % 0.00 in
11:48 85.1 °F 68.2 °F 29.99 in NW 2.2 mph 3.5 mph 57 % 0.00 in
11:53 85.3 °F 68.8 °F 29.99 in WNW 2.0 mph 3.5 mph 58 % 0.00 in
11:58 85.4 °F 65.8 °F 29.99 in WNW 2.4 mph 4.6 mph 52 % 0.00 in
12:03 85.5 °F 68.5 °F 29.99 in West 0.8 mph 2.3 mph 57 % 0.00 in
12:08 85.6 °F 67.0 °F 29.99 in WSW 0.7 mph 3.0 mph 54 % 0.00 in
12:13 85.6 °F 67.6 °F 29.99 in WNW 3.1 mph 3.5 mph 55 % 0.00 in
12:18 85.7 °F 68.2 °F 29.99 in West 0.3 mph 1.2 mph 56 % 0.00 in
12:23 86.0 °F 67.4 °F 29.99 in NW 3.2 mph 5.8 mph 54 % 0.00 in
12:28 86.1 °F 69.1 °F 29.99 in WNW 2.6 mph 3.5 mph 57 % 0.00 in
12:33 86.3 °F 67.7 °F 29.99 in West 2.3 mph 4.6 mph 54 % 0.00 in
12:38 86.3 °F 68.2 °F 29.99 in NNE 2.3 mph 4.6 mph 55 % 0.00 in
12:43 86.5 °F 68.9 °F 29.99 in NNW 1.6 mph 3.5 mph 56 % 0.00 in
12:48 86.7 °F 68.1 °F 29.99 in North 1.4 mph 3.0 mph 54 % 0.00 in
12:53 86.8 °F 67.6 °F 29.99 in WNW 2.8 mph 3.5 mph 53 % 0.00 in
12:58 86.7 °F 68.1 °F 29.99 in WSW 2.7 mph 6.9 mph 54 % 0.00 in
13:03 86.7 °F 69.1 °F 29.99 in NNE 0.8 mph 4.6 mph 56 % 0.00 in
13:09 86.7 °F 69.1 °F 30.00 in SW 4.3 mph 10.4 mph 56 % 0.00 in
13:14 86.5 °F 67.9 °F 30.00 in WSW 1.7 mph 4.6 mph 54 % 0.00 in
13:19 86.5 °F 68.4 °F 30.00 in WSW 1.3 mph 3.5 mph 55 % 0.00 in
13:24 86.5 °F 68.4 °F 30.00 in NW 2.6 mph 4.6 mph 55 % 0.00 in
13:27 86.5 °F 70.0 °F 30.00 in WSW 1.8 mph 3.5 mph 58 % 0.00 in
13:32 86.4 °F 67.2 °F 30.00 in SSW 3.3 mph 6.9 mph 53 % 0.00 in
13:37 86.4 °F 67.8 °F 30.00 in West 1.2 mph 6.9 mph 54 % 0.00 in
13:43 86.5 °F 67.9 °F 30.00 in WSW 3.6 mph 11.5 mph 54 % 0.00 in
13:48 86.5 °F 67.9 °F 30.00 in West 3.8 mph 6.9 mph 54 % 0.00 in
13:53 86.5 °F 68.4 °F 30.00 in SW 3.4 mph 6.0 mph 55 % 0.00 in
13:58 86.4 °F 67.8 °F 30.00 in WNW 3.0 mph 6.0 mph 54 % 0.00 in
14:03 86.5 °F 68.9 °F 30.00 in WNW 1.2 mph 4.0 mph 56 % 0.00 in
14:08 86.4 °F 66.7 °F 30.00 in WNW 5.3 mph 9.2 mph 52 % 0.00 in
14:13 86.4 °F 67.8 °F 30.00 in WSW 1.3 mph 6.0 mph 54 % 0.00 in
14:18 86.3 °F 66.6 °F 30.00 in NW 4.7 mph 8.1 mph 52 % 0.00 in
14:23 86.2 °F 68.1 °F 30.00 in West 1.2 mph 9.2 mph 55 % 0.00 in
14:28 86.1 °F 65.9 °F 30.00 in WNW 5.4 mph 6.9 mph 51 % 0.00 in
14:33 85.9 °F 66.2 °F 30.00 in West 6.6 mph 6.6 mph 52 % 0.00 in
14:38 85.7 °F 67.7 °F 30.00 in WSW 3.2 mph 7.0 mph 55 % 0.00 in
14:43 85.6 °F 66.0 °F 30.00 in WNW 5.7 mph 9.2 mph 52 % 0.00 in
14:48 85.4 °F 65.2 °F 30.00 in WNW 4.2 mph 9.2 mph 51 % 0.00 in
14:54 85.3 °F 65.7 °F 30.00 in North 5.5 mph 9.2 mph 52 % 0.00 in
14:55 85.3 °F 66.8 °F 30.00 in WNW 2.5 mph 5.0 mph 54 % 0.00 in
15:00 85.3 °F 66.2 °F 30.00 in WNW 4.8 mph 9.2 mph 53 % 0.00 in
15:05 85.3 °F 66.2 °F 30.00 in WNW 2.6 mph 5.0 mph 53 % 0.00 in
15:10 85.3 °F 65.7 °F 29.99 in West 3.0 mph 7.0 mph 52 % 0.00 in
15:15 85.2 °F 64.5 °F 29.99 in SW 7.4 mph 12.7 mph 50 % 0.00 in
15:20 85.1 °F 64.9 °F 30.00 in SW 5.1 mph 8.1 mph 51 % 0.00 in
15:21 85.2 °F 65.0 °F 30.00 in West 5.0 mph 8.0 mph 51 % 0.00 in
15:26 85.1 °F 66.0 °F 29.99 in West 3.0 mph 9.0 mph 53 % 0.00 in
15:28 85.1 °F 66.0 °F 30.00 in WSW 3.9 mph 5.8 mph 53 % 0.00 in
15:33 85.2 °F 65.0 °F 29.99 in SW 2.9 mph 6.9 mph 51 % 0.00 in
15:38 85.2 °F 65.0 °F 30.00 in WNW 4.7 mph 8.1 mph 51 % 0.00 in
15:43 85.3 °F 65.7 °F 29.99 in NW 4.4 mph 6.9 mph 52 % 0.00 in
15:49 85.3 °F 65.7 °F 29.99 in NW 4.2 mph 5.0 mph 52 % 0.00 in
15:54 85.4 °F 66.9 °F 29.99 in WNW 2.2 mph 6.0 mph 54 % 0.00 in
15:59 85.4 °F 65.8 °F 29.99 in North 2.9 mph 8.1 mph 52 % 0.00 in
16:04 85.4 °F 64.6 °F 30.00 in West 3.4 mph 9.2 mph 50 % 0.00 in
16:09 85.4 °F 64.6 °F 29.99 in SW 5.1 mph 9.2 mph 50 % 0.00 in
16:14 85.4 °F 66.9 °F 30.00 in NW 1.6 mph 4.0 mph 54 % 0.00 in
16:19 85.4 °F 64.6 °F 30.00 in WNW 3.0 mph 8.1 mph 50 % 0.00 in
16:24 85.4 °F 64.6 °F 30.00 in West 3.8 mph 5.8 mph 50 % 0.00 in
16:29 85.4 °F 65.8 °F 30.00 in NNE 0.6 mph 5.8 mph 52 % 0.00 in
16:34 85.4 °F 65.2 °F 30.00 in NW 4.1 mph 8.1 mph 51 % 0.00 in
16:39 85.3 °F 64.6 °F 30.00 in West 3.2 mph 3.5 mph 50 % 0.00 in
16:44 85.3 °F 65.7 °F 30.00 in WNW 1.1 mph 3.5 mph 52 % 0.00 in
16:49 85.4 °F 65.2 °F 30.00 in West 4.4 mph 6.9 mph 51 % 0.00 in
16:54 85.2 °F 65.6 °F 30.00 in WNW 2.7 mph 4.0 mph 52 % 0.00 in
16:59 85.1 °F 66.0 °F 30.00 in Calm   1.2 mph 53 % 0.00 in
17:04 85.0 °F 64.8 °F 30.00 in NW 1.0 mph 8.1 mph 51 % 0.00 in
17:09 84.7 °F 63.4 °F 30.00 in WNW 3.3 mph 4.6 mph 49 % 0.00 in
17:14 84.5 °F 64.4 °F 30.00 in WNW 0.9 mph 3.5 mph 51 % 0.00 in
17:19 84.4 °F 64.9 °F 30.00 in WNW 3.3 mph 4.6 mph 52 % 0.00 in
17:24 84.3 °F 65.8 °F 30.00 in WNW 3.1 mph 5.8 mph 54 % 0.00 in
17:29 84.1 °F 65.1 °F 30.00 in NW 2.3 mph 4.6 mph 53 % 0.00 in
17:34 83.9 °F 64.4 °F 30.00 in NW 3.9 mph 5.8 mph 52 % 0.00 in
17:39 83.7 °F 65.3 °F 30.00 in WNW 1.0 mph 4.6 mph 54 % 0.00 in
17:44 83.5 °F 65.1 °F 30.01 in Calm   1.0 mph 54 % 0.00 in
17:49 83.3 °F 65.4 °F 30.01 in WNW 1.0 mph 3.5 mph 55 % 0.00 in
17:54 83.0 °F 65.2 °F 30.01 in NNW 0.7 mph 5.8 mph 55 % 0.00 in
17:59 82.8 °F 65.5 °F 30.01 in WNW 0.5 mph 3.0 mph 56 % 0.00 in
18:04 82.5 °F 65.2 °F 30.01 in NNW 0.2 mph 1.2 mph 56 % 0.00 in
18:09 82.2 °F 64.4 °F 30.01 in NW 1.6 mph 4.6 mph 55 % 0.00 in
18:14 82.0 °F 64.2 °F 30.00 in West 2.3 mph 4.6 mph 55 % 0.00 in
18:19 81.8 °F 64.6 °F 30.01 in WNW 1.2 mph 3.5 mph 56 % 0.00 in
18:24 81.7 °F 65.0 °F 30.01 in WNW 0.2 mph 2.3 mph 57 % 0.00 in
18:29 81.5 °F 65.8 °F 30.01 in WNW 0.3 mph 2.3 mph 59 % 0.00 in
18:34 81.3 °F 65.6 °F 30.01 in WNW 0.7 mph 2.3 mph 59 % 0.00 in
18:39 81.0 °F 65.3 °F 30.01 in WNW 0.6 mph 2.3 mph 59 % 0.00 in
18:45 80.8 °F 64.6 °F 30.01 in Calm   3.5 mph 58 % 0.00 in
18:51 80.6 °F 64.5 °F 30.01 in WNW 2.1 mph 3.5 mph 58 % 0.00 in
18:56 80.4 °F 64.8 °F 30.01 in Calm   1.2 mph 59 % 0.00 in
19:05 80.1 °F 64.5 °F 30.02 in WNW 1.0 mph 3.0 mph 59 % 0.00 in
19:16 79.8 °F 64.2 °F 30.02 in WNW 1.0 mph 3.0 mph 59 % 0.00 in
19:21 79.3 °F 63.7 °F 30.02 in Calm     59 % 0.00 in
19:26 79.1 °F 64.0 °F 30.02 in Calm     60 % 0.00 in
19:31 78.8 °F 64.2 °F 30.03 in Calm   1.2 mph 61 % 0.00 in
19:36 78.6 °F 64.5 °F 30.02 in Calm     62 % 0.00 in
19:41 78.3 °F 65.1 °F 30.03 in West 0.1 mph 1.2 mph 64 % 0.00 in
19:46 78.1 °F 65.4 °F 30.03 in West 1.1 mph 2.3 mph 65 % 0.00 in
19:51 77.8 °F 65.5 °F 30.03 in West 1.5 mph 2.3 mph 66 % 0.00 in
19:56 77.5 °F 65.2 °F 30.03 in West 0.8 mph 1.2 mph 66 % 0.00 in
20:01 77.2 °F 65.0 °F 30.03 in West 0.3 mph 1.2 mph 66 % 0.00 in
20:06 76.9 °F 64.7 °F 30.03 in West 0.4 mph 1.2 mph 66 % 0.00 in
20:11 76.6 °F 64.8 °F 30.03 in Calm   1.2 mph 67 % 0.00 in
20:16 76.3 °F 64.5 °F 30.03 in West 0.5 mph 2.3 mph 67 % 0.00 in
20:21 76.1 °F 65.6 °F 30.03 in Calm     70 % 0.00 in
20:26 75.8 °F 65.3 °F 30.03 in Calm     70 % 0.00 in
20:28 75.7 °F 65.2 °F 30.03 in Calm   3.5 mph 70 % 0.00 in
20:33 75.4 °F 65.3 °F 30.04 in Calm     71 % 0.00 in
20:38 75.1 °F 65.1 °F 30.04 in Calm     71 % 0.00 in
20:43 74.9 °F 65.3 °F 30.04 in Calm     72 % 0.00 in
20:48 74.6 °F 65.0 °F 30.05 in Calm     72 % 0.00 in
20:53 74.3 °F 65.1 °F 30.05 in Calm   1.2 mph 73 % 0.00 in
20:58 74.0 °F 64.8 °F 30.05 in West 0.2 mph 1.0 mph 73 % 0.00 in
21:03 73.8 °F 64.6 °F 30.05 in West 0.1 mph 1.2 mph 73 % 0.00 in
21:08 73.5 °F 64.3 °F 30.05 in Calm     73 % 0.00 in
21:13 73.3 °F 64.1 °F 30.06 in West 0.6 mph 2.3 mph 73 % 0.00 in
21:18 73.0 °F 64.2 °F 30.06 in West 0.4 mph 3.5 mph 74 % 0.00 in
21:23 72.8 °F 64.0 °F 30.06 in West 0.2 mph 2.3 mph 74 % 0.00 in
21:29 72.6 °F 63.8 °F 30.06 in West 0.2 mph 2.3 mph 74 % 0.00 in
21:34 72.5 °F 64.1 °F 30.06 in WSW 0.6 mph 1.2 mph 75 % 0.00 in
21:39 72.4 °F 64.4 °F 30.06 in Calm     76 % 0.00 in
21:44 72.3 °F 64.3 °F 30.07 in Calm     76 % 0.00 in
21:49 72.2 °F 64.2 °F 30.07 in Calm     76 % 0.00 in
21:54 72.2 °F 64.2 °F 30.07 in Calm     76 % 0.00 in
21:59 72.1 °F 64.5 °F 30.08 in Calm     77 % 0.00 in
22:04 72.0 °F 64.4 °F 30.08 in Calm     77 % 0.00 in
22:09 71.8 °F 64.2 °F 30.08 in Calm     77 % 0.00 in
22:14 71.6 °F 64.0 °F 30.08 in Calm     77 % 0.00 in
22:19 71.5 °F 63.9 °F 30.08 in WSW 0.3 mph 1.2 mph 77 % 0.00 in
22:24 71.3 °F 63.7 °F 30.08 in WSW 0.1 mph 3.5 mph 77 % 0.00 in
22:29 71.2 °F 63.6 °F 30.08 in Calm   1.2 mph 77 % 0.00 in
22:34 71.1 °F 63.5 °F 30.07 in Calm     77 % 0.00 in
22:39 71.1 °F 63.9 °F 30.08 in Calm     78 % 0.00 in
22:44 71.0 °F 63.8 °F 30.08 in Calm     78 % 0.00 in
22:49 71.0 °F 63.8 °F 30.08 in Calm     78 % 0.00 in
22:54 70.8 °F 63.6 °F 30.08 in Calm     78 % 0.00 in
22:59 70.7 °F 63.5 °F 30.08 in Calm   1.2 mph 78 % 0.00 in
23:04 70.6 °F 63.4 °F 30.08 in Calm     78 % 0.00 in
23:09 70.4 °F 63.6 °F 30.09 in Calm     79 % 0.00 in
23:14 70.3 °F 63.5 °F 30.09 in WSW 0.2 mph 1.2 mph 79 % 0.00 in
23:19 70.1 °F 63.3 °F 30.09 in WSW 0.1 mph 1.2 mph 79 % 0.00 in
23:24 69.9 °F 63.1 °F 30.09 in WSW 0.2 mph 1.2 mph 79 % 0.00 in
23:29 69.8 °F 63.0 °F 30.09 in Calm   1.0 mph 79 % 0.00 in
23:35 69.7 °F 62.9 °F 30.09 in Calm     79 % 0.00 in
23:40 69.7 °F 63.3 °F 30.09 in Calm     80 % 0.00 in
23:45 69.6 °F 63.2 °F 30.10 in WSW 0.1 mph 1.2 mph 80 % 0.00 in
23:50 69.5 °F 63.4 °F 30.10 in Calm     81 % 0.00 in
23:55 69.4 °F 63.3 °F 30.10 in WSW 0.6 mph 3.5 mph 81 % 0.00 in
Crab Meadow Weather
Compliments of Weather Underground - 3 mb

Script developed by  Jim McMurry - jmcmurry@mwt.net Adapted for the template by  Wim van der Kuil - Leuven-Template.eu

Extremes: Alaska and Hawaii have the same heat record. In Pahala, Hawaii the temperature on April 27, 1931 was 100 degrees F. Alaska's state heat record is also 100 degrees F. on June 27, 1915 at Fort Yukon.